Time;durP1;ratioP1;P1;durP2;ratioP2;P2;SDS_P1;SDS_P2;PMS_P1;PMS_P2;Temp;Humidity;BMP_temperature;BMP_pressure;BME280_temperature;BME280_humidity;BME280_pressure;Samples;Min_cycle;Max_cycle;Signal;HPM_P1;HPM_P2
2022/10/09 00:00:59;;;;;;;7.38;2.53;;;8.60;99.90;;;;;;5053949;28;20055;-56
2022/10/09 00:03:25;;;;;;;8.48;3.03;;;8.60;99.90;;;;;;5054286;28;20057;-56
2022/10/09 00:05:50;;;;;;;8.95;2.50;;;8.60;99.90;;;;;;5054172;28;20032;-56
2022/10/09 00:08:16;;;;;;;7.63;2.67;;;8.50;99.90;;;;;;5053035;28;20048;-56
2022/10/09 00:10:42;;;;;;;5.85;2.83;;;8.50;99.90;;;;;;5054337;28;20128;-57
2022/10/09 00:13:09;;;;;;;6.28;3.10;;;8.60;99.90;;;;;;5053833;28;20480;-57
2022/10/09 00:15:43;;;;;;;7.75;3.20;;;8.60;99.90;;;;;;5053929;28;20037;-56
2022/10/09 00:18:10;;;;;;;6.47;2.80;;;8.50;99.90;;;;;;5054610;28;20033;-56
2022/10/09 00:20:38;;;;;;;6.93;2.88;;;8.60;99.90;;;;;;5052806;28;20040;-56
2022/10/09 00:23:04;;;;;;;10.82;3.38;;;8.60;99.90;;;;;;5053811;28;20037;-56
2022/10/09 00:25:30;;;;;;;13.15;3.72;;;8.50;99.90;;;;;;5053694;28;20115;-56
2022/10/09 00:27:59;;;;;;;7.05;3.35;;;8.50;99.90;;;;;;5053669;28;20452;-56
2022/10/09 00:30:25;;;;;;;11.38;4.32;;;8.50;99.90;;;;;;5053738;28;20091;-56
2022/10/09 00:32:51;;;;;;;7.68;4.43;;;8.40;99.90;;;;;;5053470;28;20123;-56
2022/10/09 00:35:17;;;;;;;12.93;3.60;;;8.40;99.90;;;;;;5053781;28;20076;-56
2022/10/09 00:37:43;;;;;;;7.90;2.92;;;8.40;99.90;;;;;;5053573;28;20040;-56
2022/10/09 00:40:08;;;;;;;6.68;3.28;;;8.30;99.90;;;;;;5053816;28;20063;-56
2022/10/09 00:42:34;;;;;;;8.02;3.80;;;8.40;99.90;;;;;;5053683;28;20094;-57
2022/10/09 00:45:02;;;;;;;8.52;3.55;;;8.30;99.90;;;;;;5053974;28;20501;-56
2022/10/09 00:47:44;;;;;;;11.88;3.90;;;8.40;99.90;;;;;;5053625;28;20048;-55
2022/10/09 00:50:29;;;;;;;9.52;3.63;;;8.30;99.90;;;;;;5053678;28;20071;-57
2022/10/09 00:52:58;;;;;;;8.13;4.55;;;8.40;99.90;;;;;;5053455;28;20472;-57
2022/10/09 00:55:24;;;;;;;;;;;8.30;99.90;;;;;;5054455;28;20048;-57
2022/10/09 00:57:53;;;;;;;9.75;3.95;;;8.20;99.90;;;;;;5053322;28;20012;-56
2022/10/09 01:00:19;;;;;;;6.13;3.30;;;8.20;99.90;;;;;;5053097;28;20049;-57
2022/10/09 01:02:45;;;;;;;10.57;3.63;;;8.20;99.90;;;;;;5052407;28;20048;-56
2022/10/09 01:05:12;;;;;;;7.85;3.40;;;8.20;99.90;;;;;;5053446;28;20032;-55
2022/10/09 01:08:06;;;;;;;6.03;2.50;;;8.30;99.90;;;;;;5053305;28;20138;-55
2022/10/09 01:11:05;;;;;;;5.82;2.60;;;8.20;99.90;;;;;;5053563;28;20041;-55
2022/10/09 01:13:59;;;;;;;6.38;2.58;;;8.20;99.90;;;;;;5053344;28;20078;-55
2022/10/09 01:16:35;;;;;;;5.15;3.03;;;8.20;99.90;;;;;;5053326;28;20045;-55
2022/10/09 01:19:11;;;;;;;6.60;2.60;;;8.20;99.90;;;;;;5053373;28;20037;-55
2022/10/09 01:22:00;;;;;;;5.22;3.17;;;8.10;99.90;;;;;;5052006;28;20491;-56
2022/10/09 01:24:41;;;;;;;5.07;2.38;;;8.20;99.90;;;;;;5053185;28;20045;-55
2022/10/09 01:27:17;;;;;;;7.68;2.75;;;8.10;99.90;;;;;;5053286;28;20036;-56
2022/10/09 01:29:47;;;;;;;5.03;2.70;;;8.30;99.90;;;;;;5053260;28;20438;-55
2022/10/09 01:32:18;;;;;;;8.05;2.85;;;8.10;99.90;;;;;;5053073;28;20532;-56
2022/10/09 01:34:45;;;;;;;10.32;2.63;;;8.00;99.90;;;;;;5053239;28;20078;-56
2022/10/09 01:37:13;;;;;;;6.70;3.08;;;8.00;99.90;;;;;;5053102;28;20048;-55
2022/10/09 01:39:41;;;;;;;11.10;2.20;;;8.10;99.90;;;;;;5051973;28;20118;-55
2022/10/09 01:42:08;;;;;;;5.30;2.15;;;8.10;99.90;;;;;;5053177;28;20037;-57
2022/10/09 01:44:34;;;;;;;9.20;2.45;;;8.10;99.90;;;;;;5053121;28;20037;-58
2022/10/09 01:47:00;;;;;;;9.43;3.20;;;8.00;99.90;;;;;;5053235;28;20048;-56
2022/10/09 01:50:00;;;;;;;4.00;2.15;;;8.50;99.90;;;;;;5053113;28;20041;-57
2022/10/09 01:52:42;;;;;;;7.18;2.45;;;8.00;99.90;;;;;;5052980;28;20387;-55
2022/10/09 01:55:08;;;;;;;9.13;2.05;;;7.80;99.90;;;;;;5053149;28;20041;-56
2022/10/09 01:58:04;;;;;;;8.90;2.40;;;7.90;99.90;;;;;;5056585;28;20045;-56
2022/10/09 02:00:35;;;;;;;6.32;2.10;;;7.80;99.90;;;;;;5056660;28;20051;-55
2022/10/09 02:03:03;;;;;;;4.43;2.05;;;7.80;99.90;;;;;;5056357;28;20471;-56
2022/10/09 02:05:30;;;;;;;5.05;1.65;;;7.80;99.90;;;;;;5056485;28;20041;-56
2022/10/09 02:07:57;;;;;;;7.32;2.35;;;7.90;99.90;;;;;;5056265;28;20040;-56
2022/10/09 02:10:24;;;;;;;4.65;2.13;;;7.80;99.90;;;;;;5056256;28;20033;-56
2022/10/09 02:12:56;;;;;;;6.63;2.22;;;7.80;99.90;;;;;;5056260;28;20120;-56
2022/10/09 02:15:26;;;;;;;5.50;2.10;;;7.80;99.90;;;;;;5056275;28;20052;-57
2022/10/09 02:17:57;;;;;;;8.07;2.00;;;7.80;99.90;;;;;;5056388;28;20043;-56
2022/10/09 02:20:31;;;;;;;5.80;2.45;;;7.70;99.90;;;;;;5054966;28;20041;-56
2022/10/09 02:23:00;;;;;;;7.90;2.75;;;7.70;99.90;;;;;;5056174;28;20445;-56
2022/10/09 02:25:27;;;;;;;8.00;2.53;;;7.70;99.90;;;;;;5055822;28;20040;-56
2022/10/09 02:27:53;;;;;;;6.63;2.25;;;7.70;99.90;;;;;;5056017;28;20037;-56
2022/10/09 02:30:20;;;;;;;9.07;2.38;;;7.70;99.90;;;;;;5055997;28;20445;-57
2022/10/09 02:32:51;;;;;;;5.80;1.92;;;7.70;99.90;;;;;;5055840;28;20081;-56
2022/10/09 02:35:17;;;;;;;9.73;2.55;;;7.70;99.90;;;;;;5055796;28;20040;-56
2022/10/09 02:37:42;;;;;;;7.47;2.85;;;7.60;99.90;;;;;;5054351;28;20040;-56
2022/10/09 02:40:08;;;;;;;11.95;3.28;;;7.50;99.90;;;;;;5055773;28;20091;-56
2022/10/09 02:42:34;;;;;;;10.57;2.30;;;7.40;99.90;;;;;;5054430;28;20429;-56
2022/10/09 02:45:00;;;;;;;5.22;2.47;;;7.40;99.90;;;;;;5055699;28;20048;-56
2022/10/09 02:47:26;;;;;;;2.42;1.65;;;7.40;99.90;;;;;;5055473;28;20040;-56
2022/10/09 02:49:51;;;;;;;5.40;2.08;;;7.50;99.90;;;;;;5055571;28;20444;-56
2022/10/09 02:52:17;;;;;;;4.50;1.98;;;7.40;99.90;;;;;;5055553;28;20069;-56
2022/10/09 02:54:42;;;;;;;4.55;2.40;;;7.40;99.90;;;;;;5055398;28;20116;-56
2022/10/09 02:57:08;;;;;;;4.22;2.22;;;7.40;99.90;;;;;;5055413;28;20437;-55
2022/10/09 02:59:34;;;;;;;5.22;2.20;;;7.40;99.90;;;;;;5054739;28;20045;-56
2022/10/09 03:01:59;;;;;;;5.00;2.65;;;7.30;99.90;;;;;;5055242;28;20130;-57
2022/10/09 03:04:25;;;;;;;4.22;2.10;;;7.30;99.90;;;;;;5055062;28;20049;-56
2022/10/09 03:06:50;;;;;;;8.07;2.63;;;7.60;99.90;;;;;;5054464;28;20108;-55
2022/10/09 03:09:16;;;;;;;5.18;2.00;;;7.30;99.90;;;;;;5055001;28;20456;-56
2022/10/09 03:11:41;;;;;;;8.75;2.63;;;7.20;99.90;;;;;;5055234;28;20055;-56
2022/10/09 03:14:08;;;;;;;10.48;2.65;;;7.30;99.90;;;;;;5055086;28;20048;-56
2022/10/09 03:16:34;;;;;;;5.13;2.67;;;7.30;99.90;;;;;;5055011;28;20163;-56
2022/10/09 03:18:59;;;;;;;6.22;2.67;;;7.30;99.90;;;;;;5054993;28;20051;-56
2022/10/09 03:21:26;;;;;;;4.55;2.30;;;7.30;99.90;;;;;;5055073;28;20043;-56
2022/10/09 03:23:52;;;;;;;7.43;3.03;;;7.40;99.90;;;;;;5055003;28;20106;-55
2022/10/09 03:26:20;;;;;;;5.85;3.15;;;7.30;99.90;;;;;;5054948;28;20040;-55
2022/10/09 03:28:48;;;;;;;9.93;3.03;;;7.30;99.90;;;;;;5054614;28;20545;-56
2022/10/09 03:31:15;;;;;;;8.65;3.10;;;7.30;99.90;;;;;;5054953;28;20279;-56
2022/10/09 03:33:41;;;;;;;5.88;2.72;;;7.40;99.90;;;;;;5054674;28;20068;-56
2022/10/09 03:36:07;;;;;;;7.75;2.97;;;7.40;99.90;;;;;;5054830;28;20040;-56
2022/10/09 03:38:33;;;;;;;7.40;3.53;;;7.40;99.90;;;;;;5054708;28;20033;-56
2022/10/09 03:41:00;;;;;;;6.65;2.92;;;7.40;99.90;;;;;;5054400;28;20055;-56
2022/10/09 03:43:26;;;;;;;8.40;3.63;;;7.40;99.90;;;;;;5054644;28;20045;-56
2022/10/09 03:45:52;;;;;;;9.98;3.28;;;7.40;99.90;;;;;;5054595;28;20047;-56
2022/10/09 03:48:17;;;;;;;11.82;3.38;;;7.40;99.90;;;;;;5054376;28;20041;-56
2022/10/09 03:50:43;;;;;;;8.52;3.22;;;7.40;99.90;;;;;;5054228;28;20037;-56
2022/10/09 03:53:13;;;;;;;6.78;3.22;;;7.40;99.90;;;;;;5054290;28;20128;-56
2022/10/09 03:55:39;;;;;;;6.65;2.90;;;7.40;99.90;;;;;;5054378;28;20051;-56
2022/10/09 03:58:05;;;;;;;8.43;2.90;;;7.40;99.90;;;;;;5054372;28;20046;-56
2022/10/09 04:00:32;;;;;;;7.07;2.97;;;7.40;99.90;;;;;;5053893;28;20107;-56
2022/10/09 04:02:57;;;;;;;7.88;3.20;;;7.30;99.90;;;;;;5054014;28;20487;-57
2022/10/09 04:05:23;;;;;;;6.28;3.00;;;7.30;99.90;;;;;;5054127;28;20091;-55
2022/10/09 04:07:49;;;;;;;7.93;3.08;;;7.30;99.90;;;;;;5054246;28;20037;-56
2022/10/09 04:10:15;;;;;;;7.95;3.35;;;7.20;99.90;;;;;;5054171;28;20064;-54
2022/10/09 04:12:40;;;;;;;7.20;3.33;;;7.20;99.90;;;;;;5053709;28;20045;-56
2022/10/09 04:15:07;;;;;;;7.18;3.28;;;7.20;99.90;;;;;;5053939;28;20033;-56
2022/10/09 04:17:33;;;;;;;7.03;3.40;;;7.30;99.90;;;;;;5053796;28;20039;-56
2022/10/09 04:19:59;;;;;;;5.88;2.97;;;7.20;99.90;;;;;;5053614;28;20033;-56
2022/10/09 04:22:25;;;;;;;9.98;3.92;;;7.30;99.90;;;;;;5052564;28;20060;-56
2022/10/09 04:24:50;;;;;;;10.50;4.55;;;7.20;99.90;;;;;;5053929;28;20037;-56
2022/10/09 04:27:16;;;;;;;7.38;3.33;;;7.20;99.90;;;;;;5053979;28;20037;-56
2022/10/09 04:29:42;;;;;;;8.07;3.72;;;7.30;99.90;;;;;;5053615;28;20072;-56
2022/10/09 04:32:07;;;;;;;7.55;5.28;;;7.20;99.90;;;;;;5053484;28;20081;-56
2022/10/09 04:34:33;;;;;;;10.30;4.45;;;7.20;99.90;;;;;;5053740;28;20116;-56
2022/10/09 04:36:59;;;;;;;7.35;4.20;;;7.20;99.90;;;;;;5054015;28;20114;-56
2022/10/09 04:39:25;;;;;;;11.35;4.00;;;7.10;99.90;;;;;;5053577;28;20526;-57
2022/10/09 04:41:50;;;;;;;8.43;4.50;;;7.10;99.90;;;;;;5053796;28;20068;-56
2022/10/09 04:44:16;;;;;;;9.85;4.30;;;7.20;99.90;;;;;;5052727;28;20048;-56
2022/10/09 04:46:41;;;;;;;9.07;5.20;;;7.10;99.90;;;;;;5052388;28;20048;-56
2022/10/09 04:49:12;;;;;;;16.65;6.22;;;7.20;99.90;;;;;;5053996;28;20399;-56
2022/10/09 04:51:37;;;;;;;7.47;5.45;;;7.20;99.90;;;;;;5053572;28;20052;-56
2022/10/09 04:54:03;;;;;;;13.07;6.13;;;7.20;99.90;;;;;;5053512;28;20042;-56
2022/10/09 04:56:29;;;;;;;10.77;5.10;;;7.20;99.90;;;;;;5053631;28;20037;-56
2022/10/09 04:58:54;;;;;;;8.15;5.35;;;7.20;99.90;;;;;;5053318;28;20028;-56
2022/10/09 05:01:22;;;;;;;11.75;5.82;;;7.20;99.90;;;;;;5053758;28;20052;-55
2022/10/09 05:03:48;;;;;;;10.68;6.45;;;7.20;99.90;;;;;;5053499;28;20045;-56
2022/10/09 05:06:15;;;;;;;12.25;5.75;;;7.10;99.90;;;;;;5053444;28;20041;-56
2022/10/09 05:08:41;;;;;;;13.77;6.88;;;7.20;99.90;;;;;;5053672;28;20048;-56
2022/10/09 05:11:18;;;;;;;9.18;5.57;;;7.10;99.90;;;;;;5053568;28;20041;-56
2022/10/09 05:13:47;;;;;;;10.68;6.32;;;7.20;99.90;;;;;;5053047;28;20488;-56
2022/10/09 05:16:15;;;;;;;14.20;6.40;;;7.10;99.90;;;;;;5053451;28;20459;-56
2022/10/09 05:18:43;;;;;;;21.53;8.13;;;7.10;99.90;;;;;;5053463;28;20116;-55
2022/10/09 05:21:09;;;;;;;11.90;6.93;;;7.20;99.90;;;;;;5052074;28;20376;-57
2022/10/09 05:23:34;;;;;;;10.85;6.80;;;7.20;99.90;;;;;;5053378;28;20044;-55
2022/10/09 05:26:06;;;;;;;14.60;7.70;;;7.10;99.90;;;;;;5051879;28;20462;-55
2022/10/09 05:28:32;;;;;;;13.63;7.18;;;7.20;99.90;;;;;;5053319;28;20132;-55
2022/10/09 05:30:58;;;;;;;10.10;6.50;;;7.20;99.90;;;;;;5053863;28;20048;-54
2022/10/09 05:33:24;;;;;;;11.32;7.47;;;7.20;99.90;;;;;;5057051;28;20048;-55
2022/10/09 05:35:51;;;;;;;14.35;7.95;;;7.20;99.90;;;;;;5056970;28;20036;-55
2022/10/09 05:38:17;;;;;;;12.15;7.68;;;7.20;99.90;;;;;;5057024;28;20033;-55
2022/10/09 05:41:03;;;;;;;16.17;7.30;;;7.20;99.90;;;;;;5056973;28;20037;-55
2022/10/09 05:43:35;;;;;;;11.63;8.50;;;7.20;99.90;;;;;;5056885;28;20098;-54
2022/10/09 05:46:06;;;;;;;11.48;6.93;;;7.20;99.90;;;;;;5054414;28;20029;-55
2022/10/09 05:48:32;;;;;;;11.43;6.78;;;7.20;99.90;;;;;;5054281;28;20478;-54
2022/10/09 05:51:11;;;;;;;14.18;7.47;;;7.10;99.90;;;;;;5056143;28;20076;-55
2022/10/09 05:53:37;;;;;;;12.07;7.05;;;7.20;99.90;;;;;;5056693;28;20077;-55
2022/10/09 05:56:10;;;;;;;11.63;7.40;;;7.10;99.90;;;;;;5056305;28;20068;-55
2022/10/09 05:58:35;;;;;;;17.45;6.93;;;7.10;99.90;;;;;;5056657;28;20393;-56
2022/10/09 06:01:01;;;;;;;17.33;7.78;;;7.10;99.90;;;;;;5056266;28;20057;-55
2022/10/09 06:03:26;;;;;;;15.18;8.27;;;7.00;99.90;;;;;;5056494;28;20114;-56
2022/10/09 06:05:58;;;;;;;13.95;7.47;;;7.30;99.90;;;;;;5056497;28;20037;-55
2022/10/09 06:08:23;;;;;;;14.48;6.80;;;7.10;99.90;;;;;;5056489;28;20129;-55
2022/10/09 06:10:49;;;;;;;10.80;6.07;;;7.00;99.90;;;;;;5056317;28;20076;-56
2022/10/09 06:13:14;;;;;;;15.05;7.18;;;7.00;99.90;;;;;;5056343;28;20072;-56
2022/10/09 06:15:51;;;;;;;12.75;6.47;;;6.90;99.90;;;;;;5056434;28;20028;-56
2022/10/09 06:18:17;;;;;;;11.35;6.88;;;6.90;99.90;;;;;;5056227;28;20044;-58
2022/10/09 06:20:55;;;;;;;10.25;6.93;;;6.90;99.90;;;;;;5056261;28;20029;-56
2022/10/09 06:23:21;;;;;;;10.68;6.55;;;6.90;99.90;;;;;;5056096;28;20037;-55
2022/10/09 06:25:55;;;;;;;9.95;6.72;;;7.00;99.90;;;;;;5056037;28;20055;-56
2022/10/09 06:28:20;;;;;;;13.45;7.40;;;7.10;99.90;;;;;;5056050;28;20044;-55
2022/10/09 06:30:46;;;;;;;14.52;7.45;;;7.20;99.90;;;;;;5055918;28;20037;-55
2022/10/09 06:33:12;;;;;;;12.80;6.60;;;7.20;99.90;;;;;;5055695;28;20037;-56
2022/10/09 06:35:38;;;;;;;12.02;6.80;;;7.20;99.90;;;;;;5055917;28;20132;-53
2022/10/09 06:38:03;;;;;;;12.00;6.55;;;7.20;99.90;;;;;;5055110;28;20475;-54
2022/10/09 06:40:29;;;;;;;11.85;7.22;;;7.30;99.90;;;;;;5056024;28;20044;-55
2022/10/09 06:42:55;;;;;;;12.77;7.18;;;7.30;99.90;;;;;;5055368;28;20048;-55
2022/10/09 06:45:20;;;;;;;9.25;6.65;;;7.40;99.90;;;;;;5055698;28;20048;-56
2022/10/09 06:47:46;;;;;;;16.30;7.88;;;7.50;99.90;;;;;;5055657;28;20113;-55
2022/10/09 06:50:11;;;;;;;13.35;7.05;;;7.40;99.90;;;;;;5055632;28;20043;-56
2022/10/09 06:52:37;;;;;;;12.40;7.05;;;7.50;99.90;;;;;;5054449;28;20431;-55
2022/10/09 06:55:03;;;;;;;14.57;8.25;;;7.60;99.90;;;;;;5055606;28;20094;-56
2022/10/09 06:57:28;;;;;;;15.30;8.82;;;7.70;99.90;;;;;;5055526;28;20095;-55
2022/10/09 06:59:54;;;;;;;16.50;9.63;;;8.00;99.90;;;;;;5055148;28;20044;-56
2022/10/09 07:02:20;;;;;;;16.75;11.57;;;7.70;99.90;;;;;;5055562;28;20079;-55
2022/10/09 07:04:46;;;;;;;21.13;13.20;;;7.80;99.90;;;;;;5055403;28;20041;-55
2022/10/09 07:07:11;;;;;;;21.77;14.40;;;7.80;99.90;;;;;;5055329;28;20040;-56
2022/10/09 07:09:37;;;;;;;21.63;14.43;;;8.00;99.90;;;;;;5055260;28;20037;-56
2022/10/09 07:12:03;;;;;;;23.55;16.38;;;8.10;99.90;;;;;;5037559;28;20048;-56
2022/10/09 07:14:29;;;;;;;23.50;17.40;;;8.30;99.90;;;;;;5054932;28;20040;-56
2022/10/09 07:16:54;;;;;;;23.27;18.50;;;8.50;99.90;;;;;;5055151;28;20045;-56
2022/10/09 07:19:20;;;;;;;21.33;16.45;;;8.70;99.90;;;;;;5054943;28;20037;-56
2022/10/09 07:21:48;;;;;;;21.13;16.98;;;9.10;99.90;;;;;;5054910;28;20040;-56
2022/10/09 07:24:14;;;;;;;26.20;16.75;;;9.30;99.90;;;;;;5054790;28;20475;-56
2022/10/09 07:26:43;;;;;;;21.00;16.98;;;9.60;99.90;;;;;;5054986;28;20122;-55
2022/10/09 07:29:10;;;;;;;24.30;17.33;;;9.80;99.90;;;;;;5054848;28;20131;-56
2022/10/09 07:31:36;;;;;;;21.17;16.05;;;10.10;99.90;;;;;;5055646;28;20049;-56
2022/10/09 07:34:02;;;;;;;22.90;15.38;;;10.30;99.90;;;;;;5054818;28;20052;-56
2022/10/09 07:36:28;;;;;;;20.67;15.63;;;10.60;99.90;;;;;;5054717;28;20059;-56
2022/10/09 07:38:55;;;;;;;17.73;14.35;;;11.00;99.90;;;;;;5054680;28;20045;-56
2022/10/09 07:41:23;;;;;;;21.85;14.05;;;11.40;99.90;;;;;;5053385;28;20072;-56
2022/10/09 07:43:49;;;;;;;18.23;14.57;;;11.80;99.90;;;;;;5054641;28;20036;-55
2022/10/09 07:46:18;;;;;;;16.35;13.45;;;12.20;99.90;;;;;;5054300;28;20495;-55
2022/10/09 07:48:44;;;;;;;;;;;12.40;99.90;;;;;;5053343;28;20037;-55
2022/10/09 07:51:16;;;;;;;17.58;11.27;;;12.70;99.90;;;;;;5053808;28;19917;-55
2022/10/09 07:53:43;;;;;;;15.73;10.55;;;13.00;99.90;;;;;;5054161;28;20120;-56
2022/10/09 07:56:14;;;;;;;13.35;10.60;;;13.20;99.90;;;;;;5054416;28;20120;-55
2022/10/09 07:58:40;;;;;;;12.13;9.23;;;13.50;99.90;;;;;;5054416;28;20056;-55
2022/10/09 08:01:07;;;;;;;12.25;8.40;;;13.70;99.90;;;;;;5053897;28;20049;-55
2022/10/09 08:03:33;;;;;;;10.45;7.60;;;14.00;99.90;;;;;;5054308;28;20045;-56
2022/10/09 08:05:59;;;;;;;10.43;6.47;;;14.20;99.90;;;;;;5054228;28;20083;-55
2022/10/09 08:08:25;;;;;;;9.18;6.60;;;14.40;99.90;;;;;;5054137;28;20037;-55
2022/10/09 08:10:51;;;;;;;10.57;6.35;;;14.70;99.90;;;;;;5054625;28;20120;-55
2022/10/09 08:13:16;;;;;;;10.07;5.50;;;14.90;99.90;;;;;;5053944;28;20037;-56
2022/10/09 08:15:43;;;;;;;11.07;6.20;;;15.00;99.90;;;;;;5052953;28;20040;-56
2022/10/09 08:18:10;;;;;;;13.75;6.05;;;15.30;99.90;;;;;;5052704;28;20040;-56
2022/10/09 08:20:36;;;;;;;9.25;5.82;;;15.20;99.90;;;;;;5053244;28;20025;-56
2022/10/09 08:23:03;;;;;;;9.60;5.15;;;15.30;99.90;;;;;;5053898;28;20063;-56
2022/10/09 08:25:32;;;;;;;11.35;5.47;;;15.50;99.90;;;;;;5053887;28;20041;-56
2022/10/09 08:27:57;;;;;;;9.10;4.50;;;15.70;99.90;;;;;;5053858;28;20106;-56
2022/10/09 08:30:23;;;;;;;7.85;4.13;;;16.00;99.90;;;;;;5053828;28;20768;-56
2022/10/09 08:32:49;;;;;;;8.40;4.25;;;16.10;99.90;;;;;;5053833;28;20041;-57
2022/10/09 08:35:14;;;;;;;9.85;3.60;;;16.30;99.90;;;;;;5053696;28;20033;-57
2022/10/09 08:37:40;;;;;;;8.40;3.58;;;16.40;99.90;;;;;;5052759;28;20163;-57
2022/10/09 08:40:06;;;;;;;6.28;3.83;;;16.50;99.90;;;;;;5053779;28;20068;-56
2022/10/09 08:42:41;;;;;;;7.65;3.45;;;16.70;99.90;;;;;;5053664;28;20078;-56
2022/10/09 08:45:16;;;;;;;6.22;3.10;;;16.90;99.90;;;;;;5052872;28;20056;-56
2022/10/09 08:47:56;;;;;;;7.15;3.25;;;16.90;99.90;;;;;;5052214;28;20033;-55
2022/10/09 08:50:28;;;;;;;6.32;2.50;;;17.00;99.90;;;;;;5052850;28;20104;-57
2022/10/09 08:53:12;;;;;;;8.90;3.17;;;16.90;99.90;;;;;;5053569;28;20064;-55
2022/10/09 08:55:47;;;;;;;9.05;2.85;;;16.90;99.90;;;;;;5053572;28;20080;-57
2022/10/09 08:58:17;;;;;;;6.00;2.30;;;16.90;99.90;;;;;;5053608;28;20039;-55
2022/10/09 09:00:44;;;;;;;7.72;2.80;;;16.80;99.90;;;;;;5052163;28;20076;-56
2022/10/09 09:03:21;;;;;;;6.18;2.65;;;16.60;99.90;;;;;;5053358;28;20072;-56
2022/10/09 09:06:03;;;;;;;6.53;2.80;;;16.50;99.90;;;;;;5056487;28;20072;-55
2022/10/09 09:08:53;;;;;;;8.25;2.30;;;16.50;99.90;;;;;;5057525;28;20049;-56
2022/10/09 09:11:40;;;;;;;8.18;2.45;;;16.10;99.90;;;;;;5057573;28;20037;-56
2022/10/09 09:14:29;;;;;;;8.30;2.17;;;16.00;99.90;;;;;;5057725;28;20049;-56
2022/10/09 09:17:13;;;;;;;5.27;2.20;;;15.80;99.90;;;;;;5057478;28;20040;-56
2022/10/09 09:19:49;;;;;;;5.45;2.75;;;15.70;99.90;;;;;;5057121;28;20048;-55
2022/10/09 09:22:16;;;;;;;5.90;2.92;;;15.50;99.90;;;;;;5057058;28;20033;-56
2022/10/09 09:24:51;;;;;;;6.40;2.20;;;15.30;99.90;;;;;;5057330;28;20033;-56
2022/10/09 09:27:19;;;;;;;3.70;1.88;;;15.10;99.90;;;;;;5057310;28;20090;-56
2022/10/09 09:30:12;;;;;;;5.95;1.98;;;15.10;99.90;;;;;;5055874;28;20127;-54
2022/10/09 09:32:44;;;;;;;4.65;2.30;;;14.90;99.90;;;;;;5055672;28;20053;-56
2022/10/09 09:35:20;;;;;;;5.45;2.08;;;14.90;99.90;;;;;;5056930;28;20067;-56
2022/10/09 09:37:46;;;;;;;7.70;1.73;;;14.90;99.90;;;;;;5056934;28;20033;-57
2022/10/09 09:40:18;;;;;;;6.22;2.08;;;14.80;99.90;;;;;;5056648;28;20151;-57
2022/10/09 09:42:44;;;;;;;5.32;1.92;;;14.80;99.90;;;;;;5056725;28;20037;-57
2022/10/09 09:45:20;;;;;;;8.68;2.30;;;14.70;99.90;;;;;;5056860;28;20118;-58
2022/10/09 09:48:21;;;;;;;5.88;1.80;;;14.70;99.90;;;;;;5056864;28;20048;-57
2022/10/09 09:50:51;;;;;;;5.65;1.70;;;14.70;99.90;;;;;;5056752;28;20052;-56
2022/10/09 09:53:32;;;;;;;7.38;2.13;;;14.70;99.90;;;;;;5056117;28;20565;-56
2022/10/09 09:55:58;;;;;;;6.07;1.73;;;14.70;99.90;;;;;;5056629;28;20045;-56
2022/10/09 09:58:32;;;;;;;5.03;2.10;;;14.80;99.90;;;;;;5056676;28;20036;-55
2022/10/09 10:01:02;;;;;;;5.47;1.73;;;14.80;99.90;;;;;;5056342;28;20057;-55
2022/10/09 10:03:29;;;;;;;5.10;1.77;;;14.90;99.90;;;;;;5056587;28;20041;-55
2022/10/09 10:05:55;;;;;;;8.02;2.10;;;14.90;99.90;;;;;;5056492;28;20356;-57
2022/10/09 10:08:28;;;;;;;11.98;2.25;;;15.00;99.90;;;;;;5056339;28;20032;-55
2022/10/09 10:10:57;;;;;;;5.32;1.65;;;15.00;99.90;;;;;;5056494;28;20037;-56
2022/10/09 10:13:34;;;;;;;10.50;2.38;;;14.90;99.90;;;;;;5056320;28;20052;-56
2022/10/09 10:16:00;;;;;;;7.35;1.80;;;14.90;99.90;;;;;;5055563;28;20087;-55
2022/10/09 10:18:31;;;;;;;10.52;2.50;;;14.90;99.90;;;;;;5056191;28;20056;-55
2022/10/09 10:21:17;;;;;;;6.47;1.98;;;14.90;99.90;;;;;;5056173;28;20045;-66
2022/10/09 10:23:50;;;;;;;8.30;2.10;;;14.90;99.90;;;;;;5056078;28;20040;-65
2022/10/09 10:26:25;;;;;;;6.70;1.80;;;14.90;99.90;;;;;;5056117;28;20033;-65
2022/10/09 10:29:19;;;;;;;9.77;1.90;;;14.90;99.90;;;;;;5055979;28;20103;-67
2022/10/09 10:32:23;;;;;;;7.80;2.50;;;14.80;99.90;;;;;;5054363;28;20119;-66
2022/10/09 10:35:05;;;;;;;7.63;1.92;;;14.70;99.90;;;;;;5055918;28;20041;-67
2022/10/09 10:37:41;;;;;;;6.78;2.15;;;14.70;99.90;;;;;;5053867;28;20053;-66
2022/10/09 10:40:16;;;;;;;12.23;2.10;;;14.80;99.90;;;;;;5055691;28;20037;-66
2022/10/09 10:43:08;;;;;;;10.55;3.00;;;14.80;99.90;;;;;;5055819;28;20033;-67
2022/10/09 10:45:51;;;;;;;8.80;2.20;;;14.80;99.90;;;;;;5054947;28;20040;-66
2022/10/09 10:48:36;;;;;;;7.45;1.90;;;14.90;99.90;;;;;;5054431;28;20032;-67
2022/10/09 10:51:29;;;;;;;9.70;1.63;;;15.00;99.90;;;;;;5054597;28;20041;-57
2022/10/09 10:53:58;;;;;;;8.35;2.75;;;15.00;99.90;;;;;;5055686;28;20441;-67
2022/10/09 10:56:52;;;;;;;5.63;1.90;;;15.10;99.90;;;;;;5055752;28;20121;-67
2022/10/09 10:59:49;;;;;;;10.18;2.17;;;15.20;99.90;;;;;;5055528;28;20037;-67
2022/10/09 11:02:52;;;;;;;7.93;1.58;;;15.30;99.90;;;;;;5055227;28;20071;-57
2022/10/09 11:05:25;;;;;;;5.25;2.10;;;15.50;99.90;;;;;;5055226;28;20040;-67
2022/10/09 11:08:01;;;;;;;7.18;1.70;;;15.70;99.90;;;;;;5055334;28;20395;-66
2022/10/09 11:10:36;;;;;;;10.52;2.00;;;16.00;99.90;;;;;;5055363;28;20048;-66
2022/10/09 11:13:35;;;;;;;5.80;1.90;;;16.20;99.90;;;;;;5053935;28;20194;-66
2022/10/09 11:16:27;;;;;;;11.50;2.15;;;16.40;99.90;;;;;;5054798;28;20045;-66
2022/10/09 11:19:34;;;;;;;14.57;1.90;;;16.50;99.90;;;;;;5055116;28;20120;-66
2022/10/09 11:22:33;;;;;;;8.07;1.92;;;16.50;99.90;;;;;;5055080;28;20041;-66
2022/10/09 11:25:35;;;;;;;4.57;1.00;;;16.80;99.90;;;;;;5055026;28;20040;-67
2022/10/09 11:28:21;;;;;;;7.50;1.33;;;17.00;99.90;;;;;;5053959;28;20115;-66
2022/10/09 11:31:08;;;;;;;7.55;1.60;;;17.10;99.90;;;;;;5054905;28;20086;-67
2022/10/09 11:33:50;;;;;;;5.50;1.73;;;17.20;99.90;;;;;;5053874;28;20487;-66
2022/10/09 11:36:23;;;;;;;5.85;1.52;;;17.40;99.90;;;;;;5053686;28;20044;-67
2022/10/09 11:38:57;;;;;;;6.43;1.65;;;17.50;99.90;;;;;;5054746;28;20056;-66
2022/10/09 11:41:25;;;;;;;4.43;1.20;;;17.60;99.90;;;;;;5054827;28;20037;-66
2022/10/09 11:44:20;;;;;;;10.52;1.50;;;17.60;99.90;;;;;;5054527;28;20557;-67
2022/10/09 11:47:22;;;;;;;5.68;1.77;;;17.70;99.90;;;;;;5030597;28;20135;-67
2022/10/09 11:49:54;;;;;;;7.78;2.03;;;17.70;99.90;;;;;;5110272;27;20866;-67
2022/10/09 11:52:38;;;;;;;7.10;1.70;;;17.60;99.90;;;;;;5111251;28;20069;-66
2022/10/09 11:55:25;;;;;;;7.43;1.55;;;17.70;99.90;;;;;;5111557;28;20486;-67
2022/10/09 11:57:51;;;;;;;5.00;1.50;;;17.90;99.90;;;;;;5109910;28;20089;-66
2022/10/09 12:00:31;;;;;;;9.95;2.30;;;17.80;99.90;;;;;;5131036;27;20110;-66
2022/10/09 12:03:00;;;;;;;7.53;1.45;;;17.70;99.90;;;;;;5131833;27;20080;-67
2022/10/09 12:05:38;;;;;;;;;;;17.80;99.90;;;;;;5132276;27;20035;-67
2022/10/09 12:08:14;;;;;;;4.53;1.40;;;17.80;99.90;;;;;;5131791;27;20367;-66
2022/10/09 12:10:47;;;;;;;3.58;0.80;;;17.90;99.90;;;;;;5132049;27;20051;-66
2022/10/09 12:13:37;;;;;;;5.55;1.80;;;17.90;99.90;;;;;;5131808;27;20047;-66
2022/10/09 12:16:05;;;;;;;4.63;1.38;;;18.00;99.90;;;;;;5130612;27;20089;-67
2022/10/09 12:18:37;;;;;;;6.97;1.33;;;18.00;99.90;;;;;;5129106;27;20035;-67
2022/10/09 12:21:20;;;;;;;7.32;1.40;;;18.10;99.90;;;;;;5112574;27;20124;-66
2022/10/09 12:23:48;;;;;;;5.97;1.20;;;18.20;99.90;;;;;;5111129;28;20366;-66
2022/10/09 12:26:15;;;;;;;6.22;1.58;;;18.20;99.90;;;;;;5111028;28;20044;-66
2022/10/09 12:29:01;;;;;;;5.95;1.95;;;17.90;99.90;;;;;;5110601;28;20036;-66
2022/10/09 12:31:35;;;;;;;4.82;1.55;;;18.00;99.90;;;;;;5110972;28;20040;-65
2022/10/09 12:34:21;;;;;;;6.90;1.70;;;18.10;99.90;;;;;;5110923;28;20413;-66
2022/10/09 12:36:47;;;;;;;9.38;1.92;;;18.10;99.90;;;;;;5110885;28;20043;-67
2022/10/09 12:39:23;;;;;;;9.05;2.33;;;18.10;99.90;;;;;;5110645;28;20118;-67
2022/10/09 12:41:56;;;;;;;6.50;1.90;;;18.10;99.90;;;;;;5110698;28;20044;-66
2022/10/09 12:44:34;;;;;;;5.40;1.90;;;18.10;99.90;;;;;;5110747;28;20389;-67
2022/10/09 12:47:12;;;;;;;3.95;1.30;;;18.00;99.90;;;;;;5109002;28;20165;-67
2022/10/09 12:49:38;;;;;;;6.72;1.80;;;17.90;99.90;;;;;;5127161;27;20097;-67
2022/10/09 12:52:13;;;;;;;8.23;1.83;;;17.80;99.90;;;;;;5130039;27;20039;-67
2022/10/09 12:54:42;;;;;;;6.00;1.30;;;17.90;99.90;;;;;;5130789;28;20114;-67
2022/10/09 12:57:13;;;;;;;4.57;1.27;;;17.90;99.90;;;;;;5130886;28;20038;-67
2022/10/09 12:59:39;;;;;;;4.15;1.50;;;17.90;99.90;;;;;;5126495;28;20047;-67
2022/10/09 13:02:10;;;;;;;5.78;1.60;;;17.90;99.90;;;;;;5117175;28;20396;-67
2022/10/09 13:04:37;;;;;;;6.13;1.40;;;17.90;99.90;;;;;;5117069;28;20043;-67
2022/10/09 13:07:06;;;;;;;8.32;1.70;;;17.90;99.90;;;;;;5116833;28;20114;-67
2022/10/09 13:09:36;;;;;;;5.80;1.40;;;17.80;99.90;;;;;;5116964;28;20040;-67
2022/10/09 13:12:16;;;;;;;4.85;1.83;;;17.90;99.90;;;;;;5117008;28;20032;-67